sensor_id;sensor_type;location;lat;lon;timestamp;temperature;humidity
11497;DHT22;5805;51.542;7.230;2024-03-23T00:54:35;11.00;99.90
11497;DHT22;5805;51.542;7.230;2024-03-23T00:57:01;10.90;99.90
11497;DHT22;5805;51.542;7.230;2024-03-23T00:59:26;10.90;99.90
11497;DHT22;5805;51.542;7.230;2024-03-23T01:01:52;10.90;99.90
11497;DHT22;5805;51.542;7.230;2024-03-23T01:04:18;10.90;99.90
11497;DHT22;5805;51.542;7.230;2024-03-23T01:06:46;10.90;99.90
11497;DHT22;5805;51.542;7.230;2024-03-23T01:09:11;10.90;99.90
11497;DHT22;5805;51.542;7.230;2024-03-23T01:11:37;10.90;99.90
11497;DHT22;5805;51.542;7.230;2024-03-23T01:14:03;11.00;99.90
11497;DHT22;5805;51.542;7.230;2024-03-23T01:16:28;11.00;99.90
11497;DHT22;5805;51.542;7.230;2024-03-23T01:18:54;10.90;99.90
11497;DHT22;5805;51.542;7.230;2024-03-23T01:21:19;10.90;99.90
11497;DHT22;5805;51.542;7.230;2024-03-23T01:23:45;10.90;99.90
11497;DHT22;5805;51.542;7.230;2024-03-23T01:26:10;11.10;99.90
11497;DHT22;5805;51.542;7.230;2024-03-23T01:28:36;11.00;99.90
11497;DHT22;5805;51.542;7.230;2024-03-23T01:31:01;11.00;99.90
11497;DHT22;5805;51.542;7.230;2024-03-23T01:33:27;11.00;99.90
11497;DHT22;5805;51.542;7.230;2024-03-23T01:35:52;10.90;99.90
11497;DHT22;5805;51.542;7.230;2024-03-23T01:38:18;10.80;99.90
11497;DHT22;5805;51.542;7.230;2024-03-23T01:40:43;10.80;99.90
11497;DHT22;5805;51.542;7.230;2024-03-23T01:43:09;10.80;99.90
11497;DHT22;5805;51.542;7.230;2024-03-23T01:48:01;10.80;99.90
11497;DHT22;5805;51.542;7.230;2024-03-23T01:50:27;10.60;99.90
11497;DHT22;5805;51.542;7.230;2024-03-23T01:52:53;10.60;99.90
11497;DHT22;5805;51.542;7.230;2024-03-23T01:55:19;10.60;99.90
11497;DHT22;5805;51.542;7.230;2024-03-23T01:57:45;10.70;99.90
11497;DHT22;5805;51.542;7.230;2024-03-23T02:00:11;11.50;99.90
11497;DHT22;5805;51.542;7.230;2024-03-23T02:02:36;10.60;99.90
11497;DHT22;5805;51.542;7.230;2024-03-23T02:05:02;10.60;99.90
11497;DHT22;5805;51.542;7.230;2024-03-23T02:07:27;10.70;99.90
11497;DHT22;5805;51.542;7.230;2024-03-23T02:09:53;10.70;99.90
11497;DHT22;5805;51.542;7.230;2024-03-23T02:12:19;10.80;99.90
11497;DHT22;5805;51.542;7.230;2024-03-23T02:14:45;10.70;99.90
11497;DHT22;5805;51.542;7.230;2024-03-23T02:17:10;10.80;99.90
11497;DHT22;5805;51.542;7.230;2024-03-23T02:19:36;10.80;99.90
11497;DHT22;5805;51.542;7.230;2024-03-23T02:22:01;10.80;99.90
11497;DHT22;5805;51.542;7.230;2024-03-23T02:24:29;10.70;99.90
11497;DHT22;5805;51.542;7.230;2024-03-23T02:26:54;10.70;99.90
11497;DHT22;5805;51.542;7.230;2024-03-23T02:29:20;10.70;99.90
11497;DHT22;5805;51.542;7.230;2024-03-23T02:31:45;10.60;99.90
11497;DHT22;5805;51.542;7.230;2024-03-23T02:34:11;10.70;99.90
11497;DHT22;5805;51.542;7.230;2024-03-23T02:36:36;10.70;99.90
11497;DHT22;5805;51.542;7.230;2024-03-23T02:39:02;10.60;99.90
11497;DHT22;5805;51.542;7.230;2024-03-23T02:41:27;10.60;99.90
11497;DHT22;5805;51.542;7.230;2024-03-23T02:43:53;10.70;99.90
11497;DHT22;5805;51.542;7.230;2024-03-23T02:46:18;10.80;99.90
11497;DHT22;5805;51.542;7.230;2024-03-23T02:48:44;10.80;99.90
11497;DHT22;5805;51.542;7.230;2024-03-23T02:51:10;10.80;99.90
11497;DHT22;5805;51.542;7.230;2024-03-23T02:53:36;10.80;99.90
11497;DHT22;5805;51.542;7.230;2024-03-23T02:56:01;10.70;99.90
11497;DHT22;5805;51.542;7.230;2024-03-23T02:58:27;10.70;99.90
11497;DHT22;5805;51.542;7.230;2024-03-23T03:00:53;10.70;99.90
11497;DHT22;5805;51.542;7.230;2024-03-23T03:03:18;10.80;99.90
11497;DHT22;5805;51.542;7.230;2024-03-23T03:05:44;10.70;99.90
11497;DHT22;5805;51.542;7.230;2024-03-23T03:08:09;10.70;99.90
11497;DHT22;5805;51.542;7.230;2024-03-23T03:10:35;11.30;99.90
11497;DHT22;5805;51.542;7.230;2024-03-23T03:13:00;10.80;99.90
11497;DHT22;5805;51.542;7.230;2024-03-23T03:15:26;10.60;99.90
11497;DHT22;5805;51.542;7.230;2024-03-23T03:17:51;10.60;99.90
11497;DHT22;5805;51.542;7.230;2024-03-23T03:20:17;10.60;99.90
11497;DHT22;5805;51.542;7.230;2024-03-23T03:22:43;10.70;99.90
11497;DHT22;5805;51.542;7.230;2024-03-23T03:25:08;11.30;99.90
11497;DHT22;5805;51.542;7.230;2024-03-23T03:27:34;10.60;99.90
11497;DHT22;5805;51.542;7.230;2024-03-23T03:29:59;10.60;99.90
11497;DHT22;5805;51.542;7.230;2024-03-23T03:32:25;10.70;99.90
11497;DHT22;5805;51.542;7.230;2024-03-23T03:34:50;10.60;99.90
11497;DHT22;5805;51.542;7.230;2024-03-23T03:37:16;10.50;99.90
11497;DHT22;5805;51.542;7.230;2024-03-23T03:39:41;10.50;99.90
11497;DHT22;5805;51.542;7.230;2024-03-23T03:42:07;10.40;99.90
11497;DHT22;5805;51.542;7.230;2024-03-23T03:44:32;10.40;99.90
11497;DHT22;5805;51.542;7.230;2024-03-23T03:46:58;10.40;99.90
11497;DHT22;5805;51.542;7.230;2024-03-23T03:49:23;10.50;99.90
11497;DHT22;5805;51.542;7.230;2024-03-23T03:51:49;10.50;99.90
11497;DHT22;5805;51.542;7.230;2024-03-23T03:54:14;10.50;99.90
11497;DHT22;5805;51.542;7.230;2024-03-23T03:56:40;10.50;99.90
11497;DHT22;5805;51.542;7.230;2024-03-23T03:59:05;10.60;99.90
11497;DHT22;5805;51.542;7.230;2024-03-23T04:01:31;10.60;99.90
11497;DHT22;5805;51.542;7.230;2024-03-23T04:03:56;10.60;99.90
11497;DHT22;5805;51.542;7.230;2024-03-23T04:06:22;10.50;99.90
11497;DHT22;5805;51.542;7.230;2024-03-23T04:08:47;10.50;99.90
11497;DHT22;5805;51.542;7.230;2024-03-23T04:11:13;10.50;99.90
11497;DHT22;5805;51.542;7.230;2024-03-23T04:13:38;10.50;99.90
11497;DHT22;5805;51.542;7.230;2024-03-23T04:16:04;10.50;99.90
11497;DHT22;5805;51.542;7.230;2024-03-23T04:18:30;10.40;99.90
11497;DHT22;5805;51.542;7.230;2024-03-23T04:20:55;10.40;99.90
11497;DHT22;5805;51.542;7.230;2024-03-23T04:23:21;10.50;99.90
11497;DHT22;5805;51.542;7.230;2024-03-23T04:25:46;10.40;99.90
11497;DHT22;5805;51.542;7.230;2024-03-23T04:28:12;10.40;99.90
11497;DHT22;5805;51.542;7.230;2024-03-23T04:30:37;10.40;99.90
11497;DHT22;5805;51.542;7.230;2024-03-23T04:33:03;10.40;99.90
11497;DHT22;5805;51.542;7.230;2024-03-23T04:35:28;10.40;99.90
11497;DHT22;5805;51.542;7.230;2024-03-23T04:37:54;10.40;99.90
11497;DHT22;5805;51.542;7.230;2024-03-23T04:40:19;10.40;99.90
11497;DHT22;5805;51.542;7.230;2024-03-23T04:42:46;10.30;99.90
11497;DHT22;5805;51.542;7.230;2024-03-23T04:45:12;10.30;99.90
11497;DHT22;5805;51.542;7.230;2024-03-23T04:47:38;10.30;99.90
11497;DHT22;5805;51.542;7.230;2024-03-23T04:50:04;10.30;99.90
11497;DHT22;5805;51.542;7.230;2024-03-23T04:52:30;10.30;99.90
11497;DHT22;5805;51.542;7.230;2024-03-23T04:54:55;10.30;99.90
11497;DHT22;5805;51.542;7.230;2024-03-23T04:57:21;10.40;99.90
11497;DHT22;5805;51.542;7.230;2024-03-23T04:59:46;10.30;99.90
11497;DHT22;5805;51.542;7.230;2024-03-23T05:02:12;10.30;99.90
11497;DHT22;5805;51.542;7.230;2024-03-23T05:04:38;10.30;99.90
11497;DHT22;5805;51.542;7.230;2024-03-23T05:07:03;10.30;99.90
11497;DHT22;5805;51.542;7.230;2024-03-23T05:09:29;10.30;99.90
11497;DHT22;5805;51.542;7.230;2024-03-23T05:11:55;10.30;99.90
11497;DHT22;5805;51.542;7.230;2024-03-23T05:14:21;10.20;99.90
11497;DHT22;5805;51.542;7.230;2024-03-23T05:16:46;10.20;99.90
11497;DHT22;5805;51.542;7.230;2024-03-23T05:19:12;10.20;99.90
11497;DHT22;5805;51.542;7.230;2024-03-23T05:21:37;10.20;99.90
11497;DHT22;5805;51.542;7.230;2024-03-23T05:24:03;10.20;99.90
11497;DHT22;5805;51.542;7.230;2024-03-23T05:26:28;10.20;99.90
11497;DHT22;5805;51.542;7.230;2024-03-23T05:28:54;10.10;99.90
11497;DHT22;5805;51.542;7.230;2024-03-23T05:31:26;10.10;99.90
11497;DHT22;5805;51.542;7.230;2024-03-23T05:33:52;10.10;99.90
11497;DHT22;5805;51.542;7.230;2024-03-23T05:36:18;10.30;99.90
11497;DHT22;5805;51.542;7.230;2024-03-23T05:38:44;10.10;99.90
11497;DHT22;5805;51.542;7.230;2024-03-23T05:41:09;10.10;99.90
11497;DHT22;5805;51.542;7.230;2024-03-23T05:43:35;10.10;99.90
11497;DHT22;5805;51.542;7.230;2024-03-23T05:46:00;10.00;99.90
11497;DHT22;5805;51.542;7.230;2024-03-23T05:48:26;10.10;99.90
11497;DHT22;5805;51.542;7.230;2024-03-23T05:50:52;10.10;99.90
11497;DHT22;5805;51.542;7.230;2024-03-23T05:53:19;10.10;99.90
11497;DHT22;5805;51.542;7.230;2024-03-23T05:55:44;10.00;99.90
11497;DHT22;5805;51.542;7.230;2024-03-23T05:58:10;10.00;99.90
11497;DHT22;5805;51.542;7.230;2024-03-23T06:00:36;10.80;99.90
11497;DHT22;5805;51.542;7.230;2024-03-23T06:03:01;10.10;99.90
11497;DHT22;5805;51.542;7.230;2024-03-23T06:05:27;10.10;99.90
11497;DHT22;5805;51.542;7.230;2024-03-23T06:07:53;10.10;99.90
11497;DHT22;5805;51.542;7.230;2024-03-23T06:10:18;10.90;99.90
11497;DHT22;5805;51.542;7.230;2024-03-23T06:12:47;10.10;99.90
11497;DHT22;5805;51.542;7.230;2024-03-23T06:15:12;10.20;99.90
11497;DHT22;5805;51.542;7.230;2024-03-23T06:17:38;10.20;99.90
11497;DHT22;5805;51.542;7.230;2024-03-23T06:20:05;10.10;99.90
11497;DHT22;5805;51.542;7.230;2024-03-23T06:22:30;10.10;99.90
11497;DHT22;5805;51.542;7.230;2024-03-23T06:24:56;10.10;99.90
11497;DHT22;5805;51.542;7.230;2024-03-23T06:27:21;10.10;99.90
11497;DHT22;5805;51.542;7.230;2024-03-23T06:29:47;10.20;99.90
11497;DHT22;5805;51.542;7.230;2024-03-23T06:32:12;10.20;99.90
11497;DHT22;5805;51.542;7.230;2024-03-23T06:34:38;10.20;99.90
11497;DHT22;5805;51.542;7.230;2024-03-23T06:37:06;10.20;99.90
11497;DHT22;5805;51.542;7.230;2024-03-23T06:39:31;10.60;99.90
11497;DHT22;5805;51.542;7.230;2024-03-23T06:41:57;10.10;99.90
11497;DHT22;5805;51.542;7.230;2024-03-23T06:44:22;11.00;99.90
11497;DHT22;5805;51.542;7.230;2024-03-23T06:46:48;10.20;99.90
11497;DHT22;5805;51.542;7.230;2024-03-23T06:49:13;10.30;99.90
11497;DHT22;5805;51.542;7.230;2024-03-23T06:51:39;10.40;99.90
11497;DHT22;5805;51.542;7.230;2024-03-23T06:54:04;10.50;99.90
11497;DHT22;5805;51.542;7.230;2024-03-23T06:56:30;10.40;99.90
11497;DHT22;5805;51.542;7.230;2024-03-23T06:58:56;10.40;99.90
11497;DHT22;5805;51.542;7.230;2024-03-23T07:01:22;10.70;99.90
11497;DHT22;5805;51.542;7.230;2024-03-23T07:03:48;11.40;99.90
11497;DHT22;5805;51.542;7.230;2024-03-23T07:06:13;11.10;99.90
11497;DHT22;5805;51.542;7.230;2024-03-23T07:08:39;11.30;99.90
11497;DHT22;5805;51.542;7.230;2024-03-23T07:11:04;11.40;99.90
11497;DHT22;5805;51.542;7.230;2024-03-23T07:13:30;11.60;99.90
11497;DHT22;5805;51.542;7.230;2024-03-23T07:15:56;12.60;99.90
11497;DHT22;5805;51.542;7.230;2024-03-23T07:18:22;12.80;99.90
11497;DHT22;5805;51.542;7.230;2024-03-23T07:20:56;12.70;99.90
11497;DHT22;5805;51.542;7.230;2024-03-23T07:23:23;12.80;99.90
11497;DHT22;5805;51.542;7.230;2024-03-23T07:26:05;12.80;99.90
11497;DHT22;5805;51.542;7.230;2024-03-23T07:28:34;13.00;99.90
11497;DHT22;5805;51.542;7.230;2024-03-23T07:31:06;12.80;99.90
11497;DHT22;5805;51.542;7.230;2024-03-23T07:33:32;12.60;99.90
11497;DHT22;5805;51.542;7.230;2024-03-23T07:35:58;12.50;99.90
11497;DHT22;5805;51.542;7.230;2024-03-23T07:38:24;12.50;99.90
11497;DHT22;5805;51.542;7.230;2024-03-23T07:40:49;12.50;99.90
11497;DHT22;5805;51.542;7.230;2024-03-23T07:43:15;12.50;99.90
11497;DHT22;5805;51.542;7.230;2024-03-23T07:45:40;12.50;99.90
11497;DHT22;5805;51.542;7.230;2024-03-23T07:48:06;12.50;99.90
11497;DHT22;5805;51.542;7.230;2024-03-23T07:50:32;12.50;99.90
11497;DHT22;5805;51.542;7.230;2024-03-23T07:52:57;12.40;99.90
11497;DHT22;5805;51.542;7.230;2024-03-23T07:55:23;12.40;99.90
11497;DHT22;5805;51.542;7.230;2024-03-23T07:57:51;12.50;99.90
11497;DHT22;5805;51.542;7.230;2024-03-23T08:00:17;12.90;99.90
11497;DHT22;5805;51.542;7.230;2024-03-23T08:02:42;13.00;99.90
11497;DHT22;5805;51.542;7.230;2024-03-23T08:05:08;13.20;99.90
11497;DHT22;5805;51.542;7.230;2024-03-23T08:07:33;13.20;99.90
11497;DHT22;5805;51.542;7.230;2024-03-23T08:09:59;13.30;99.90
11497;DHT22;5805;51.542;7.230;2024-03-23T08:12:24;13.40;99.90
11497;DHT22;5805;51.542;7.230;2024-03-23T08:14:50;13.50;99.90
11497;DHT22;5805;51.542;7.230;2024-03-23T08:17:15;13.50;99.90
11497;DHT22;5805;51.542;7.230;2024-03-23T08:19:41;13.70;99.90
11497;DHT22;5805;51.542;7.230;2024-03-23T08:22:06;13.60;99.90
11497;DHT22;5805;51.542;7.230;2024-03-23T08:24:32;13.60;99.90
11497;DHT22;5805;51.542;7.230;2024-03-23T08:26:57;13.40;99.90
11497;DHT22;5805;51.542;7.230;2024-03-23T08:29:23;13.50;99.90
11497;DHT22;5805;51.542;7.230;2024-03-23T08:31:48;13.50;99.90
11497;DHT22;5805;51.542;7.230;2024-03-23T08:34:14;13.50;99.90
11497;DHT22;5805;51.542;7.230;2024-03-23T08:36:39;13.30;99.90
11497;DHT22;5805;51.542;7.230;2024-03-23T08:39:05;13.00;99.90
11497;DHT22;5805;51.542;7.230;2024-03-23T08:41:30;12.90;99.90
11497;DHT22;5805;51.542;7.230;2024-03-23T08:43:55;12.80;99.90
11497;DHT22;5805;51.542;7.230;2024-03-23T08:46:21;12.90;99.90
11497;DHT22;5805;51.542;7.230;2024-03-23T08:48:47;13.00;99.90
11497;DHT22;5805;51.542;7.230;2024-03-23T08:51:13;13.00;99.90
11497;DHT22;5805;51.542;7.230;2024-03-23T08:53:40;13.00;98.50
11497;DHT22;5805;51.542;7.230;2024-03-23T08:56:07;12.90;98.20
11497;DHT22;5805;51.542;7.230;2024-03-23T08:58:34;12.90;98.30
11497;DHT22;5805;51.542;7.230;2024-03-23T09:01:08;12.40;97.90
11497;DHT22;5805;51.542;7.230;2024-03-23T09:03:34;12.40;98.30
11497;DHT22;5805;51.542;7.230;2024-03-23T09:05:59;12.40;98.70
11497;DHT22;5805;51.542;7.230;2024-03-23T09:08:25;12.50;97.00
11497;DHT22;5805;51.542;7.230;2024-03-23T09:10:52;12.40;97.30
11497;DHT22;5805;51.542;7.230;2024-03-23T09:13:17;12.40;97.70
11497;DHT22;5805;51.542;7.230;2024-03-23T09:18:13;12.40;99.00
11497;DHT22;5805;51.542;7.230;2024-03-23T09:20:38;12.40;99.00
11497;DHT22;5805;51.542;7.230;2024-03-23T09:23:04;12.60;97.80
11497;DHT22;5805;51.542;7.230;2024-03-23T09:25:29;12.50;97.40
11497;DHT22;5805;51.542;7.230;2024-03-23T09:27:55;12.60;96.20
11497;DHT22;5805;51.542;7.230;2024-03-23T09:30:21;13.30;95.20
11497;DHT22;5805;51.542;7.230;2024-03-23T09:32:46;13.30;95.70
11497;DHT22;5805;51.542;7.230;2024-03-23T09:35:12;14.30;93.50
11497;DHT22;5805;51.542;7.230;2024-03-23T09:37:40;13.90;89.70
11497;DHT22;5805;51.542;7.230;2024-03-23T09:40:15;14.20;88.80
11497;DHT22;5805;51.542;7.230;2024-03-23T09:42:41;14.20;89.70
11497;DHT22;5805;51.542;7.230;2024-03-23T09:45:13;13.90;86.10
11497;DHT22;5805;51.542;7.230;2024-03-23T09:47:42;13.60;90.20
11497;DHT22;5805;51.542;7.230;2024-03-23T09:50:07;13.30;91.40
11497;DHT22;5805;51.542;7.230;2024-03-23T09:52:33;13.20;93.30
11497;DHT22;5805;51.542;7.230;2024-03-23T09:54:59;13.30;90.30
11497;DHT22;5805;51.542;7.230;2024-03-23T09:57:24;13.10;85.70
11497;DHT22;5805;51.542;7.230;2024-03-23T09:59:50;13.10;86.40
11497;DHT22;5805;51.542;7.230;2024-03-23T10:02:16;13.90;86.00
11497;DHT22;5805;51.542;7.230;2024-03-23T10:04:41;13.40;88.50
11497;DHT22;5805;51.542;7.230;2024-03-23T10:07:14;13.50;88.20
11497;DHT22;5805;51.542;7.230;2024-03-23T10:09:40;13.50;88.20
11497;DHT22;5805;51.542;7.230;2024-03-23T10:14:35;13.40;83.00
11497;DHT22;5805;51.542;7.230;2024-03-23T10:19:38;13.40;84.50
11497;DHT22;5805;51.542;7.230;2024-03-23T10:22:04;13.40;83.40
11497;DHT22;5805;51.542;7.230;2024-03-23T10:24:29;13.40;84.10
11497;DHT22;5805;51.542;7.230;2024-03-23T10:26:58;13.70;86.10
11497;DHT22;5805;51.542;7.230;2024-03-23T10:29:23;13.70;86.10
11497;DHT22;5805;51.542;7.230;2024-03-23T10:31:49;13.70;86.50
11497;DHT22;5805;51.542;7.230;2024-03-23T10:34:14;13.80;85.80
11497;DHT22;5805;51.542;7.230;2024-03-23T10:36:40;13.60;82.90
11497;DHT22;5805;51.542;7.230;2024-03-23T10:39:07;13.50;78.80
11497;DHT22;5805;51.542;7.230;2024-03-23T10:41:33;13.40;79.80
11497;DHT22;5805;51.542;7.230;2024-03-23T10:43:59;13.30;82.80
11497;DHT22;5805;51.542;7.230;2024-03-23T10:46:24;13.30;84.30
11497;DHT22;5805;51.542;7.230;2024-03-23T10:48:50;13.20;80.60
11497;DHT22;5805;51.542;7.230;2024-03-23T10:51:16;13.10;76.80
11497;DHT22;5805;51.542;7.230;2024-03-23T10:53:41;13.10;79.80
11497;DHT22;5805;51.542;7.230;2024-03-23T10:56:07;13.30;79.90
11497;DHT22;5805;51.542;7.230;2024-03-23T10:58:41;13.50;81.20
11497;DHT22;5805;51.542;7.230;2024-03-23T11:01:10;13.60;76.60
11497;DHT22;5805;51.542;7.230;2024-03-23T11:03:37;13.60;76.50
11497;DHT22;5805;51.542;7.230;2024-03-23T11:06:06;13.60;77.50
11497;DHT22;5805;51.542;7.230;2024-03-23T11:08:39;13.70;73.60
11497;DHT22;5805;51.542;7.230;2024-03-23T11:11:21;13.60;70.80
11497;DHT22;5805;51.542;7.230;2024-03-23T11:13:51;13.10;72.60
11497;DHT22;5805;51.542;7.230;2024-03-23T11:16:25;13.00;74.10
11497;DHT22;5805;51.542;7.230;2024-03-23T11:18:51;12.50;84.80
11497;DHT22;5805;51.542;7.230;2024-03-23T11:21:51;12.10;88.10
11497;DHT22;5805;51.542;7.230;2024-03-23T11:24:17;12.00;89.70
11497;DHT22;5805;51.542;7.230;2024-03-23T11:26:43;11.90;87.90
11497;DHT22;5805;51.542;7.230;2024-03-23T11:29:13;12.00;89.90
11497;DHT22;5805;51.542;7.230;2024-03-23T11:31:38;12.00;90.30
11497;DHT22;5805;51.542;7.230;2024-03-23T11:34:05;12.10;90.30
11497;DHT22;5805;51.542;7.230;2024-03-23T11:36:31;12.40;91.70
11497;DHT22;5805;51.542;7.230;2024-03-23T11:38:56;12.40;92.00
11497;DHT22;5805;51.542;7.230;2024-03-23T11:41:22;12.80;89.40
11497;DHT22;5805;51.542;7.230;2024-03-23T11:43:47;12.80;86.50
11497;DHT22;5805;51.542;7.230;2024-03-23T11:46:22;12.80;86.90
11497;DHT22;5805;51.542;7.230;2024-03-23T11:48:51;12.80;83.00
11497;DHT22;5805;51.542;7.230;2024-03-23T11:51:17;12.80;85.50
11497;DHT22;5805;51.542;7.230;2024-03-23T11:53:42;12.80;86.10
11497;DHT22;5805;51.542;7.230;2024-03-23T11:56:08;12.80;86.10
11497;DHT22;5805;51.542;7.230;2024-03-23T11:58:34;12.90;82.40
11497;DHT22;5805;51.542;7.230;2024-03-23T12:01:02;13.20;84.20
11497;DHT22;5805;51.542;7.230;2024-03-23T12:03:27;13.40;82.40
11497;DHT22;5805;51.542;7.230;2024-03-23T12:05:54;13.50;76.10
11497;DHT22;5805;51.542;7.230;2024-03-23T12:08:24;13.40;75.50
11497;DHT22;5805;51.542;7.230;2024-03-23T12:11:04;13.40;76.40
11497;DHT22;5805;51.542;7.230;2024-03-23T12:13:30;13.40;76.00
11497;DHT22;5805;51.542;7.230;2024-03-23T12:18:34;13.70;73.80
11497;DHT22;5805;51.542;7.230;2024-03-23T12:20:59;13.70;75.00
11497;DHT22;5805;51.542;7.230;2024-03-23T12:23:25;14.40;70.80
11497;DHT22;5805;51.542;7.230;2024-03-23T12:25:50;14.50;69.10
11497;DHT22;5805;51.542;7.230;2024-03-23T12:28:16;14.50;67.40
11497;DHT22;5805;51.542;7.230;2024-03-23T12:30:41;14.40;64.70
11497;DHT22;5805;51.542;7.230;2024-03-23T12:33:07;14.10;63.90
11497;DHT22;5805;51.542;7.230;2024-03-23T12:35:33;13.80;67.20
11497;DHT22;5805;51.542;7.230;2024-03-23T12:37:58;13.70;71.10
11497;DHT22;5805;51.542;7.230;2024-03-23T12:40:24;13.30;72.00
11497;DHT22;5805;51.542;7.230;2024-03-23T12:42:50;13.30;72.60
11497;DHT22;5805;51.542;7.230;2024-03-23T12:45:15;13.00;72.50
11497;DHT22;5805;51.542;7.230;2024-03-23T12:47:41;13.00;74.80
11497;DHT22;5805;51.542;7.230;2024-03-23T12:50:07;13.00;75.20
11497;DHT22;5805;51.542;7.230;2024-03-23T12:52:33;13.00;72.90
11497;DHT22;5805;51.542;7.230;2024-03-23T12:54:58;13.20;72.40
11497;DHT22;5805;51.542;7.230;2024-03-23T12:57:25;13.30;69.80
11497;DHT22;5805;51.542;7.230;2024-03-23T12:59:52;13.40;71.50
11497;DHT22;5805;51.542;7.230;2024-03-23T13:02:21;13.30;71.50
11497;DHT22;5805;51.542;7.230;2024-03-23T13:04:49;13.40;71.50
11497;DHT22;5805;51.542;7.230;2024-03-23T13:07:15;13.30;67.30
11497;DHT22;5805;51.542;7.230;2024-03-23T13:09:41;13.20;69.70
11497;DHT22;5805;51.542;7.230;2024-03-23T13:12:07;13.20;70.40
11497;DHT22;5805;51.542;7.230;2024-03-23T13:14:32;13.40;70.90
11497;DHT22;5805;51.542;7.230;2024-03-23T13:16:58;13.60;66.50
11497;DHT22;5805;51.542;7.230;2024-03-23T13:19:24;13.30;66.10
11497;DHT22;5805;51.542;7.230;2024-03-23T13:21:49;13.10;68.40
11497;DHT22;5805;51.542;7.230;2024-03-23T13:24:15;13.10;69.00
11497;DHT22;5805;51.542;7.230;2024-03-23T13:26:40;12.90;71.60
11497;DHT22;5805;51.542;7.230;2024-03-23T13:29:06;12.40;82.80
11497;DHT22;5805;51.542;7.230;2024-03-23T13:31:31;12.40;84.70
11497;DHT22;5805;51.542;7.230;2024-03-23T13:33:57;12.50;85.50
11497;DHT22;5805;51.542;7.230;2024-03-23T13:36:22;12.80;86.70
11497;DHT22;5805;51.542;7.230;2024-03-23T13:38:48;12.80;85.80
11497;DHT22;5805;51.542;7.230;2024-03-23T13:41:13;13.00;83.90
11497;DHT22;5805;51.542;7.230;2024-03-23T13:43:39;13.10;83.50
11497;DHT22;5805;51.542;7.230;2024-03-23T13:46:04;13.30;82.70
11497;DHT22;5805;51.542;7.230;2024-03-23T13:48:30;13.30;82.40
11497;DHT22;5805;51.542;7.230;2024-03-23T13:53:24;12.70;78.30
11497;DHT22;5805;51.542;7.230;2024-03-23T13:55:50;12.50;77.90
11497;DHT22;5805;51.542;7.230;2024-03-23T13:58:16;12.40;76.20
11497;DHT22;5805;51.542;7.230;2024-03-23T14:00:41;12.30;77.70
11497;DHT22;5805;51.542;7.230;2024-03-23T14:03:07;12.10;83.90
11497;DHT22;5805;51.542;7.230;2024-03-23T14:05:32;12.00;91.60
11497;DHT22;5805;51.542;7.230;2024-03-23T14:07:59;12.00;91.60
11497;DHT22;5805;51.542;7.230;2024-03-23T14:10:25;11.90;96.20
11497;DHT22;5805;51.542;7.230;2024-03-23T14:12:50;12.60;99.70
11497;DHT22;5805;51.542;7.230;2024-03-23T14:15:15;12.00;99.20
11497;DHT22;5805;51.542;7.230;2024-03-23T14:17:41;12.00;99.10
11497;DHT22;5805;51.542;7.230;2024-03-23T14:20:07;12.00;97.80
11497;DHT22;5805;51.542;7.230;2024-03-23T14:22:32;12.00;98.00
11497;DHT22;5805;51.542;7.230;2024-03-23T14:24:58;11.90;98.60
11497;DHT22;5805;51.542;7.230;2024-03-23T14:27:23;12.00;98.50
11497;DHT22;5805;51.542;7.230;2024-03-23T14:29:49;12.00;99.20
11497;DHT22;5805;51.542;7.230;2024-03-23T14:32:15;12.20;95.90
11497;DHT22;5805;51.542;7.230;2024-03-23T14:34:41;12.30;96.50
11497;DHT22;5805;51.542;7.230;2024-03-23T14:39:33;12.30;94.10
11497;DHT22;5805;51.542;7.230;2024-03-23T14:41:58;12.40;93.40
11497;DHT22;5805;51.542;7.230;2024-03-23T14:44:24;12.00;90.40
11497;DHT22;5805;51.542;7.230;2024-03-23T14:46:49;12.00;90.80
11497;DHT22;5805;51.542;7.230;2024-03-23T14:49:15;11.90;90.50
11497;DHT22;5805;51.542;7.230;2024-03-23T14:51:41;11.90;89.20
11497;DHT22;5805;51.542;7.230;2024-03-23T14:54:07;12.60;90.00
11497;DHT22;5805;51.542;7.230;2024-03-23T14:56:32;11.90;85.30
11497;DHT22;5805;51.542;7.230;2024-03-23T14:58:58;11.90;86.40
11497;DHT22;5805;51.542;7.230;2024-03-23T15:01:23;11.90;84.20
11497;DHT22;5805;51.542;7.230;2024-03-23T15:03:49;11.90;82.60
11497;DHT22;5805;51.542;7.230;2024-03-23T15:06:14;12.00;83.90
11497;DHT22;5805;51.542;7.230;2024-03-23T15:08:40;12.10;83.30
11497;DHT22;5805;51.542;7.230;2024-03-23T15:11:05;12.10;83.30
11497;DHT22;5805;51.542;7.230;2024-03-23T15:13:38;12.40;82.10
11497;DHT22;5805;51.542;7.230;2024-03-23T15:16:04;12.30;78.80
11497;DHT22;5805;51.542;7.230;2024-03-23T15:18:30;12.10;81.20
11497;DHT22;5805;51.542;7.230;2024-03-23T15:20:59;12.10;81.30
11497;DHT22;5805;51.542;7.230;2024-03-23T15:23:25;12.00;81.30
11497;DHT22;5805;51.542;7.230;2024-03-23T15:26:08;11.80;76.70
11497;DHT22;5805;51.542;7.230;2024-03-23T15:28:34;11.90;77.90
11497;DHT22;5805;51.542;7.230;2024-03-23T15:30:59;12.10;78.60
11497;DHT22;5805;51.542;7.230;2024-03-23T15:33:25;11.90;79.20
11497;DHT22;5805;51.542;7.230;2024-03-23T15:35:50;11.90;73.80
11497;DHT22;5805;51.542;7.230;2024-03-23T15:38:16;11.80;72.80
11497;DHT22;5805;51.542;7.230;2024-03-23T15:40:41;11.80;72.40
11497;DHT22;5805;51.542;7.230;2024-03-23T15:43:07;12.00;73.20
11497;DHT22;5805;51.542;7.230;2024-03-23T15:45:32;11.70;73.10
11497;DHT22;5805;51.542;7.230;2024-03-23T15:47:58;11.60;74.20
11497;DHT22;5805;51.542;7.230;2024-03-23T15:50:23;11.60;74.40
11497;DHT22;5805;51.542;7.230;2024-03-23T15:52:49;11.60;75.10
11497;DHT22;5805;51.542;7.230;2024-03-23T15:55:14;11.70;75.50
11497;DHT22;5805;51.542;7.230;2024-03-23T15:57:40;11.60;73.20
11497;DHT22;5805;51.542;7.230;2024-03-23T16:00:06;11.60;74.00
11497;DHT22;5805;51.542;7.230;2024-03-23T16:02:32;11.80;75.80
11497;DHT22;5805;51.542;7.230;2024-03-23T16:04:57;11.90;72.40
11497;DHT22;5805;51.542;7.230;2024-03-23T16:07:23;11.90;73.20
11497;DHT22;5805;51.542;7.230;2024-03-23T16:09:48;12.30;74.10
11497;DHT22;5805;51.542;7.230;2024-03-23T16:12:14;11.90;72.90
11497;DHT22;5805;51.542;7.230;2024-03-23T16:14:39;11.70;72.80
11497;DHT22;5805;51.542;7.230;2024-03-23T16:17:05;11.60;72.40
11497;DHT22;5805;51.542;7.230;2024-03-23T16:19:33;11.50;72.50
11497;DHT22;5805;51.542;7.230;2024-03-23T16:21:58;11.50;73.20
11497;DHT22;5805;51.542;7.230;2024-03-23T16:24:24;11.40;73.80
11497;DHT22;5805;51.542;7.230;2024-03-23T16:26:49;11.40;74.50
11497;DHT22;5805;51.542;7.230;2024-03-23T16:29:15;11.40;74.20
11497;DHT22;5805;51.542;7.230;2024-03-23T16:31:40;11.20;73.80
11497;DHT22;5805;51.542;7.230;2024-03-23T16:34:06;11.20;74.10
11497;DHT22;5805;51.542;7.230;2024-03-23T16:36:31;11.20;74.80
11497;DHT22;5805;51.542;7.230;2024-03-23T16:38:57;11.10;74.20
11497;DHT22;5805;51.542;7.230;2024-03-23T16:41:22;11.00;75.00
11497;DHT22;5805;51.542;7.230;2024-03-23T16:43:48;11.70;76.00
11497;DHT22;5805;51.542;7.230;2024-03-23T16:46:14;10.90;75.70
11497;DHT22;5805;51.542;7.230;2024-03-23T16:48:41;11.00;75.80